This is the latest recevied weather packets stored in our database for station/object KE8KMM. If no packets are shown the sender has not sent any weather packets the latest 10 day(s).
| Time | Temp. | Humidity | Pressure | Rain* | Wind** | Luminosity | Snow |
|---|---|---|---|---|---|---|---|
| 1777591271 | 12.78° C | 69% | 1013.1 hPa | 0 mm | - | 73 W/m² | - |
| 1777590966 | 13.33° C | 60% | 1013.1 hPa | 0 mm | - | 87 W/m² | - |
| 1777590662 | 12.78° C | 54% | 1013 hPa | 0 mm | - | 95 W/m² | - |
| 1777590358 | 12.78° C | 57% | 1013 hPa | 0 mm | - | 95 W/m² | - |
| 1777590056 | 12.78° C | 58% | 1013.1 hPa | 0 mm | - | 53 W/m² | - |
| 1777589752 | 12.78° C | 58% | 1012.8 hPa | 0 mm | - | 70 W/m² | - |
| 1777589451 | 11.67° C | 59% | 1013 hPa | 0 mm | - | 120 W/m² | - |
| 1777589146 | 12.22° C | 57% | 1013.1 hPa | 0 mm | - | 80 W/m² | - |
| 1777588842 | 13.33° C | 52% | 1013 hPa | 0 mm | - | 166 W/m² | - |
| 1777588539 | 13.33° C | 56% | 1012.8 hPa | 0 mm | - | 173 W/m² | - |
| 1777588234 | 13.89° C | 57% | 1012.8 hPa | 0 mm | - | 193 W/m² | - |
| 1777587929 | 13.89° C | 56% | 1013 hPa | 0 mm | - | 212 W/m² | - |
| 1777587626 | 13.33° C | 55% | 1012.9 hPa | 0 mm | - | 241 W/m² | - |
| 1777587321 | 13.89° C | 54% | 1013.1 hPa | 0 mm | - | 255 W/m² | - |
| 1777587016 | 13.89° C | 56% | 1012.9 hPa | 0 mm | - | 268 W/m² | - |
| 1777586712 | 13.33° C | 56% | 1013 hPa | 0 mm | - | 271 W/m² | - |
| 1777586408 | 13.33° C | 58% | 1013 hPa | 0 mm | - | 161 W/m² | - |
| 1777586108 | 12.78° C | 61% | 1013 hPa | 0 mm | - | 203 W/m² | - |
| 1777585806 | 12.78° C | 60% | 1013.1 hPa | 0 mm | - | 247 W/m² | - |
| 1777585506 | 12.78° C | 57% | 1013.2 hPa | 0 mm | - | 94 W/m² | - |
| 1777585202 | 12.78° C | 64% | 1013.2 hPa | 0 mm | - | 447 W/m² | - |
| 1777584897 | 12.78° C | 60% | 1013.1 hPa | 0 mm | - | 158 W/m² | - |
| 1777584595 | 12.78° C | 63% | 1013 hPa | 0 mm | - | 157 W/m² | - |
| 1777584292 | 12.22° C | 67% | 1013 hPa | 0 mm | - | 504 W/m² | - |
| 1777583987 | 12.78° C | 63% | 1013.1 hPa | 0 mm | - | 128 W/m² | - |
* Rain latest hour (hover to see other rain measurements)
** Current wind speed in m/s (hover to see current wind gust speed)